createdAt,value
2023-04-15T00:01:49.753Z,2.50
2023-04-15T00:11:49.667Z,2.10
2023-04-15T00:21:49.673Z,2.10
2023-04-15T00:31:49.721Z,1.90
2023-04-15T00:41:49.740Z,1.80
2023-04-15T00:51:49.761Z,1.50
2023-04-15T01:01:49.775Z,2.00
2023-04-15T01:11:49.724Z,1.40
2023-04-15T01:21:49.726Z,1.80
2023-04-15T01:31:49.776Z,1.80
2023-04-15T01:41:49.756Z,1.60
2023-04-15T01:51:49.750Z,1.30
2023-04-15T02:01:49.758Z,1.80
2023-04-15T02:11:49.792Z,1.20
2023-04-15T02:21:49.819Z,1.10
2023-04-15T02:31:49.840Z,1.50
2023-04-15T02:41:49.774Z,1.00
2023-04-15T02:51:49.809Z,1.25
2023-04-15T03:01:49.923Z,1.10
2023-04-15T03:11:49.851Z,0.80
2023-04-15T03:21:49.832Z,1.40
2023-04-15T03:31:49.821Z,1.00
2023-04-15T03:41:49.862Z,1.10
2023-04-15T03:51:49.850Z,1.10
2023-04-15T04:01:49.921Z,1.40
2023-04-15T04:11:49.879Z,1.90
2023-04-15T04:22:49.883Z,0.60
2023-04-15T04:33:49.909Z,0.80
2023-04-15T04:44:49.907Z,0.90
2023-04-15T04:55:49.928Z,0.70
2023-04-15T05:06:49.919Z,0.55
2023-04-15T05:17:49.902Z,2.00
2023-04-15T05:28:49.912Z,1.40
2023-04-15T05:39:49.926Z,1.00
2023-04-15T05:50:49.935Z,2.30
2023-04-15T06:01:49.958Z,10.80
2023-04-15T06:12:49.938Z,16.50
2023-04-15T06:23:49.950Z,19.60
2023-04-15T06:34:49.957Z,21.00
2023-04-15T06:45:49.995Z,19.50
2023-04-15T06:56:50.007Z,20.80
2023-04-15T07:07:49.957Z,18.70
2023-04-15T07:18:49.968Z,15.70
2023-04-15T07:29:49.965Z,18.00
2023-04-15T07:40:50.642Z,16.90
2023-04-15T07:54:49.965Z,16.70
2023-04-15T08:08:50.051Z,17.80
2023-04-15T08:19:50.032Z,14.40
2023-04-15T08:33:50.039Z,11.60
2023-04-15T08:44:50.035Z,10.30
2023-04-15T08:58:50.012Z,10.85
2023-04-15T09:09:50.025Z,12.20
2023-04-15T09:23:50.046Z,10.20
2023-04-15T09:37:50.055Z,8.70
2023-04-15T09:52:01.596Z,7.30
2023-04-15T10:05:50.054Z,7.90
2023-04-15T10:18:50.070Z,11.30
2023-04-15T10:30:50.125Z,10.65
2023-04-15T10:43:50.151Z,13.50
2023-04-15T10:57:50.134Z,10.80
2023-04-15T11:11:50.140Z,9.10
2023-04-15T11:25:50.121Z,11.00
2023-04-15T11:39:50.117Z,16.50
2023-04-15T11:53:50.121Z,12.20
2023-04-15T12:07:50.300Z,12.20
2023-04-15T12:21:50.189Z,13.00
2023-04-15T12:35:50.168Z,11.90
2023-04-15T12:49:50.205Z,8.80
2023-04-15T13:03:50.192Z,7.00
2023-04-15T13:17:50.217Z,5.50
2023-04-15T13:31:50.272Z,5.20
2023-04-15T13:45:50.233Z,5.00
2023-04-15T13:59:50.204Z,4.20
2023-04-15T14:13:50.228Z,8.30
2023-04-15T14:27:50.223Z,9.50
2023-04-15T14:41:50.305Z,11.80
2023-04-15T14:55:50.287Z,12.10
2023-04-15T15:09:50.276Z,15.60
2023-04-15T15:23:50.252Z,15.60
2023-04-15T15:37:50.296Z,12.90
2023-04-15T15:51:50.313Z,14.30
2023-04-15T16:05:50.326Z,12.10
2023-04-15T16:19:55.700Z,12.10
2023-04-15T16:33:50.339Z,16.50
2023-04-15T16:47:50.416Z,14.50
2023-04-15T17:00:50.514Z,10.50
2023-04-15T17:11:50.403Z,8.50
2023-04-15T17:22:50.387Z,9.70
2023-04-15T17:36:50.369Z,6.20
2023-04-15T17:50:51.845Z,10.60
2023-04-15T18:05:50.380Z,7.90
2023-04-15T18:19:50.369Z,8.90
2023-04-15T18:33:50.382Z,9.30
2023-04-15T18:43:50.396Z,6.50
2023-04-15T18:56:50.415Z,6.00
2023-04-15T19:09:50.431Z,4.90
2023-04-15T19:22:50.418Z,6.20
2023-04-15T19:35:50.424Z,5.20
2023-04-15T19:48:50.446Z,5.20
2023-04-15T20:01:50.556Z,5.50
2023-04-15T20:14:50.468Z,4.75
2023-04-15T20:40:50.541Z,4.00
2023-04-15T20:53:50.504Z,3.30
2023-04-15T21:06:50.522Z,4.20
2023-04-15T21:19:50.542Z,2.80
2023-04-15T21:32:50.550Z,2.85
2023-04-15T21:46:21.758Z,2.70
2023-04-15T21:58:50.544Z,3.30
2023-04-15T22:11:50.529Z,7.00
2023-04-15T22:24:50.569Z,2.50
2023-04-15T22:37:50.551Z,3.30
2023-04-15T22:50:50.564Z,2.50
2023-04-15T23:03:56.018Z,2.10
2023-04-15T23:16:50.578Z,2.00
2023-04-15T23:29:50.596Z,1.90
2023-04-15T23:42:50.587Z,1.80
2023-04-15T23:55:50.586Z,1.60
